sensor_id;sensor_type;location;lat;lon;timestamp;pressure;altitude;pressure_sealevel;temperature;humidity
76753;BME280;65687;51.308;16.916;2023-02-22T00:02:25;99742.77;;;4.13;77.34
76753;BME280;65687;51.308;16.916;2023-02-22T00:07:29;99745.03;;;4.06;77.27
76753;BME280;65687;51.308;16.916;2023-02-22T00:12:30;99753.20;;;4.00;77.51
76753;BME280;65687;51.308;16.916;2023-02-22T00:17:32;99754.95;;;4.00;77.53
76753;BME280;65687;51.308;16.916;2023-02-22T00:22:34;99756.60;;;3.86;77.71
76753;BME280;65687;51.308;16.916;2023-02-22T00:27:36;99751.52;;;3.76;77.49
76753;BME280;65687;51.308;16.916;2023-02-22T00:32:37;99755.46;;;3.63;77.72
76753;BME280;65687;51.308;16.916;2023-02-22T00:37:39;99763.66;;;3.50;77.85
76753;BME280;65687;51.308;16.916;2023-02-22T00:42:44;99760.84;;;3.37;77.99
76753;BME280;65687;51.308;16.916;2023-02-22T00:47:47;99762.80;;;3.24;77.91
76753;BME280;65687;51.308;16.916;2023-02-22T00:52:50;99765.30;;;3.13;78.26
76753;BME280;65687;51.308;16.916;2023-02-22T00:57:53;99770.66;;;3.01;78.63
76753;BME280;65687;51.308;16.916;2023-02-22T01:02:56;99772.64;;;2.92;78.56
76753;BME280;65687;51.308;16.916;2023-02-22T01:07:59;99769.84;;;2.89;78.61
76753;BME280;65687;51.308;16.916;2023-02-22T01:13:02;99769.77;;;2.93;78.58
76753;BME280;65687;51.308;16.916;2023-02-22T01:18:09;99779.56;;;2.98;78.45
76753;BME280;65687;51.308;16.916;2023-02-22T01:23:10;99778.31;;;2.92;77.99
76753;BME280;65687;51.308;16.916;2023-02-22T01:28:12;99780.30;;;2.79;78.19
76753;BME280;65687;51.308;16.916;2023-02-22T01:33:14;99774.49;;;2.70;78.56
76753;BME280;65687;51.308;16.916;2023-02-22T01:38:16;99777.67;;;2.67;78.79
76753;BME280;65687;51.308;16.916;2023-02-22T01:48:34;99772.08;;;2.68;78.71
76753;BME280;65687;51.308;16.916;2023-02-22T01:53:52;99771.60;;;2.58;79.17
76753;BME280;65687;51.308;16.916;2023-02-22T01:59:01;99768.64;;;2.55;79.16
76753;BME280;65687;51.308;16.916;2023-02-22T02:04:10;99767.68;;;2.43;79.07
76753;BME280;65687;51.308;16.916;2023-02-22T02:14:17;99760.05;;;2.40;79.75
76753;BME280;65687;51.308;16.916;2023-02-22T02:30:33;99762.11;;;2.51;80.24
76753;BME280;65687;51.308;16.916;2023-02-22T02:35:59;99762.77;;;2.61;80.42
76753;BME280;65687;51.308;16.916;2023-02-22T02:41:15;99761.63;;;2.72;80.53
76753;BME280;65687;51.308;16.916;2023-02-22T02:46:24;99763.55;;;2.68;80.72
76753;BME280;65687;51.308;16.916;2023-02-22T02:51:31;99763.56;;;2.75;80.49
76753;BME280;65687;51.308;16.916;2023-02-22T02:56:34;99768.95;;;2.79;80.44
76753;BME280;65687;51.308;16.916;2023-02-22T03:17:20;99767.02;;;2.77;81.35
76753;BME280;65687;51.308;16.916;2023-02-22T03:22:31;99766.93;;;2.79;81.30
76753;BME280;65687;51.308;16.916;2023-02-22T03:27:39;99763.52;;;2.78;81.35
76753;BME280;65687;51.308;16.916;2023-02-22T03:32:48;99765.55;;;2.89;81.17
76753;BME280;65687;51.308;16.916;2023-02-22T03:37:57;99765.40;;;2.95;80.91
76753;BME280;65687;51.308;16.916;2023-02-22T03:43:06;99768.88;;;2.89;80.86
76753;BME280;65687;51.308;16.916;2023-02-22T03:53:32;99773.44;;;2.83;81.04
76753;BME280;65687;51.308;16.916;2023-02-22T03:58:35;99771.58;;;2.82;80.96
76753;BME280;65687;51.308;16.916;2023-02-22T04:03:38;99773.69;;;2.74;80.78
76753;BME280;65687;51.308;16.916;2023-02-22T04:08:40;99776.66;;;2.62;80.75
76753;BME280;65687;51.308;16.916;2023-02-22T04:13:44;99777.20;;;2.52;80.96
76753;BME280;65687;51.308;16.916;2023-02-22T04:18:46;99775.52;;;2.41;80.70
76753;BME280;65687;51.308;16.916;2023-02-22T04:23:48;99775.34;;;2.36;81.37
76753;BME280;65687;51.308;16.916;2023-02-22T04:28:49;99777.15;;;2.28;81.11
76753;BME280;65687;51.308;16.916;2023-02-22T04:33:51;99775.52;;;2.14;81.01
76753;BME280;65687;51.308;16.916;2023-02-22T04:38:53;99771.30;;;2.01;81.72
76753;BME280;65687;51.308;16.916;2023-02-22T04:43:55;99770.64;;;1.98;81.66
76753;BME280;65687;51.308;16.916;2023-02-22T04:48:57;99772.91;;;1.96;81.78
76753;BME280;65687;51.308;16.916;2023-02-22T04:53:59;99769.51;;;1.93;81.40
76753;BME280;65687;51.308;16.916;2023-02-22T04:59:00;99774.09;;;1.87;82.12
76753;BME280;65687;51.308;16.916;2023-02-22T05:04:04;99772.30;;;1.82;82.16
76753;BME280;65687;51.308;16.916;2023-02-22T05:09:06;99769.52;;;1.79;81.95
76753;BME280;65687;51.308;16.916;2023-02-22T05:14:07;99764.20;;;1.74;81.97
76753;BME280;65687;51.308;16.916;2023-02-22T05:19:09;99763.88;;;1.73;82.40
76753;BME280;65687;51.308;16.916;2023-02-22T05:24:10;99767.25;;;1.73;82.57
76753;BME280;65687;51.308;16.916;2023-02-22T05:29:13;99766.25;;;1.72;82.50
76753;BME280;65687;51.308;16.916;2023-02-22T05:34:15;99764.61;;;1.73;81.85
76753;BME280;65687;51.308;16.916;2023-02-22T05:39:16;99771.78;;;1.80;81.56
76753;BME280;65687;51.308;16.916;2023-02-22T05:44:18;99774.55;;;1.80;81.63
76753;BME280;65687;51.308;16.916;2023-02-22T05:49:19;99779.67;;;1.76;82.16
76753;BME280;65687;51.308;16.916;2023-02-22T05:54:21;99785.12;;;1.70;82.26
76753;BME280;65687;51.308;16.916;2023-02-22T05:59:23;99787.95;;;1.62;82.32
76753;BME280;65687;51.308;16.916;2023-02-22T06:04:24;99789.55;;;1.58;82.47
76753;BME280;65687;51.308;16.916;2023-02-22T06:09:26;99795.92;;;1.59;82.65
76753;BME280;65687;51.308;16.916;2023-02-22T06:14:28;99803.80;;;1.67;82.75
76753;BME280;65687;51.308;16.916;2023-02-22T06:19:29;99805.05;;;1.73;83.03
76753;BME280;65687;51.308;16.916;2023-02-22T06:24:31;99806.23;;;1.75;82.79
76753;BME280;65687;51.308;16.916;2023-02-22T06:29:33;99810.48;;;1.78;83.17
76753;BME280;65687;51.308;16.916;2023-02-22T06:34:34;99812.95;;;1.87;83.14
76753;BME280;65687;51.308;16.916;2023-02-22T06:39:36;99819.88;;;1.88;83.63
76753;BME280;65687;51.308;16.916;2023-02-22T06:44:37;99819.94;;;1.89;83.49
76753;BME280;65687;51.308;16.916;2023-02-22T06:49:39;99824.45;;;1.96;84.16
76753;BME280;65687;51.308;16.916;2023-02-22T06:54:41;99827.33;;;2.10;83.67
76753;BME280;65687;51.308;16.916;2023-02-22T06:59:43;99831.64;;;2.22;84.15
76753;BME280;65687;51.308;16.916;2023-02-22T07:04:45;99830.95;;;2.37;84.16
76753;BME280;65687;51.308;16.916;2023-02-22T07:09:47;99830.79;;;2.47;84.02
76753;BME280;65687;51.308;16.916;2023-02-22T07:14:48;99836.89;;;2.50;84.40
76753;BME280;65687;51.308;16.916;2023-02-22T07:19:50;99841.30;;;2.63;84.45
76753;BME280;65687;51.308;16.916;2023-02-22T07:24:51;99845.45;;;2.84;84.34
76753;BME280;65687;51.308;16.916;2023-02-22T07:29:53;99848.54;;;3.02;84.19
76753;BME280;65687;51.308;16.916;2023-02-22T07:34:54;99853.45;;;3.16;84.08
76753;BME280;65687;51.308;16.916;2023-02-22T07:39:56;99858.65;;;3.21;84.25
76753;BME280;65687;51.308;16.916;2023-02-22T07:44:57;99858.89;;;3.27;84.50
76753;BME280;65687;51.308;16.916;2023-02-22T07:49:59;99855.17;;;3.37;84.73
76753;BME280;65687;51.308;16.916;2023-02-22T07:55:01;99852.64;;;3.55;84.50
76753;BME280;65687;51.308;16.916;2023-02-22T08:00:03;99851.11;;;3.77;83.47
76753;BME280;65687;51.308;16.916;2023-02-22T08:05:05;99857.16;;;3.99;82.35
76753;BME280;65687;51.308;16.916;2023-02-22T08:10:08;99855.15;;;4.17;81.79
76753;BME280;65687;51.308;16.916;2023-02-22T08:15:18;99852.42;;;4.34;81.16
76753;BME280;65687;51.308;16.916;2023-02-22T08:20:21;99854.80;;;4.45;80.32
76753;BME280;65687;51.308;16.916;2023-02-22T08:25:25;99855.41;;;4.59;79.98
76753;BME280;65687;51.308;16.916;2023-02-22T08:30:29;99852.10;;;4.73;79.18
76753;BME280;65687;51.308;16.916;2023-02-22T08:35:32;99854.00;;;4.89;78.83
76753;BME280;65687;51.308;16.916;2023-02-22T08:40:35;99858.01;;;4.98;78.53
76753;BME280;65687;51.308;16.916;2023-02-22T08:45:37;99856.85;;;5.08;78.38
76753;BME280;65687;51.308;16.916;2023-02-22T08:50:39;99853.07;;;5.13;77.87
76753;BME280;65687;51.308;16.916;2023-02-22T08:55:43;99848.21;;;5.21;77.42
76753;BME280;65687;51.308;16.916;2023-02-22T09:00:44;99843.48;;;5.28;76.64
76753;BME280;65687;51.308;16.916;2023-02-22T09:05:46;99837.52;;;5.40;76.45
76753;BME280;65687;51.308;16.916;2023-02-22T09:10:49;99833.25;;;5.65;75.84
76753;BME280;65687;51.308;16.916;2023-02-22T09:15:50;99829.59;;;5.79;74.98
76753;BME280;65687;51.308;16.916;2023-02-22T09:20:53;99827.71;;;5.93;74.75
76753;BME280;65687;51.308;16.916;2023-02-22T09:25:55;99831.82;;;6.08;74.27
76753;BME280;65687;51.308;16.916;2023-02-22T09:30:57;99836.90;;;6.27;73.82
76753;BME280;65687;51.308;16.916;2023-02-22T09:35:58;99836.05;;;6.41;71.95
76753;BME280;65687;51.308;16.916;2023-02-22T09:46:36;99835.27;;;6.50;71.23
76753;BME280;65687;51.308;16.916;2023-02-22T09:56:44;99837.38;;;6.66;68.71
76753;BME280;65687;51.308;16.916;2023-02-22T10:01:49;99835.91;;;6.75;68.43
76753;BME280;65687;51.308;16.916;2023-02-22T10:12:24;99832.71;;;7.00;69.40
76753;BME280;65687;51.308;16.916;2023-02-22T10:23:12;99827.54;;;7.24;68.22
76753;BME280;65687;51.308;16.916;2023-02-22T10:28:19;99823.02;;;7.24;66.89
76753;BME280;65687;51.308;16.916;2023-02-22T10:33:25;99822.73;;;7.25;66.72
76753;BME280;65687;51.308;16.916;2023-02-22T10:38:33;99821.65;;;7.26;66.27
76753;BME280;65687;51.308;16.916;2023-02-22T10:43:44;99823.31;;;7.15;64.61
76753;BME280;65687;51.308;16.916;2023-02-22T10:48:49;99814.67;;;7.40;64.62
76753;BME280;65687;51.308;16.916;2023-02-22T10:53:58;99812.40;;;7.85;63.55
76753;BME280;65687;51.308;16.916;2023-02-22T10:59:03;99806.48;;;8.17;63.04
76753;BME280;65687;51.308;16.916;2023-02-22T11:04:15;99808.35;;;8.05;62.27
76753;BME280;65687;51.308;16.916;2023-02-22T11:09:20;99811.39;;;7.83;62.43
76753;BME280;65687;51.308;16.916;2023-02-22T11:14:28;99811.53;;;7.76;62.73
76753;BME280;65687;51.308;16.916;2023-02-22T11:19:30;99807.94;;;7.73;63.09
76753;BME280;65687;51.308;16.916;2023-02-22T11:24:33;99803.89;;;7.70;63.24
76753;BME280;65687;51.308;16.916;2023-02-22T11:29:37;99800.20;;;7.71;63.58
76753;BME280;65687;51.308;16.916;2023-02-22T11:34:40;99800.43;;;7.69;63.74
76753;BME280;65687;51.308;16.916;2023-02-22T11:39:45;99794.15;;;7.66;62.86
76753;BME280;65687;51.308;16.916;2023-02-22T11:44:47;99793.36;;;7.56;63.11
76753;BME280;65687;51.308;16.916;2023-02-22T11:49:48;99791.20;;;7.56;63.07
76753;BME280;65687;51.308;16.916;2023-02-22T12:00:38;99792.75;;;7.42;62.85
76753;BME280;65687;51.308;16.916;2023-02-22T12:21:19;99787.89;;;7.30;63.13
76753;BME280;65687;51.308;16.916;2023-02-22T12:26:27;99788.16;;;7.30;63.07
76753;BME280;65687;51.308;16.916;2023-02-22T12:31:38;99792.29;;;7.26;62.88
76753;BME280;65687;51.308;16.916;2023-02-22T12:36:55;99793.61;;;7.24;62.30
76753;BME280;65687;51.308;16.916;2023-02-22T12:42:02;99789.36;;;7.30;63.09
76753;BME280;65687;51.308;16.916;2023-02-22T12:47:05;99788.92;;;7.35;63.17
76753;BME280;65687;51.308;16.916;2023-02-22T12:52:18;99787.46;;;7.34;62.26
76753;BME280;65687;51.308;16.916;2023-02-22T12:57:38;99788.36;;;7.32;62.31
76753;BME280;65687;51.308;16.916;2023-02-22T13:02:47;99784.83;;;7.34;62.49
76753;BME280;65687;51.308;16.916;2023-02-22T13:23:38;99780.86;;;7.26;62.44
76753;BME280;65687;51.308;16.916;2023-02-22T13:54:50;99768.47;;;7.43;61.73
76753;BME280;65687;51.308;16.916;2023-02-22T14:21:17;99777.75;;;7.30;61.23
76753;BME280;65687;51.308;16.916;2023-02-22T14:26:32;99774.98;;;7.29;61.40
76753;BME280;65687;51.308;16.916;2023-02-22T14:37:27;99771.15;;;7.29;61.52
76753;BME280;65687;51.308;16.916;2023-02-22T14:42:33;99763.04;;;7.30;60.76
76753;BME280;65687;51.308;16.916;2023-02-22T14:47:43;99762.35;;;7.30;61.11
76753;BME280;65687;51.308;16.916;2023-02-22T14:53:17;99764.70;;;7.30;60.83
76753;BME280;65687;51.308;16.916;2023-02-22T14:58:30;99762.77;;;7.31;61.09
76753;BME280;65687;51.308;16.916;2023-02-22T15:03:34;99760.91;;;7.29;61.15
76753;BME280;65687;51.308;16.916;2023-02-22T15:08:40;99760.92;;;7.27;60.68
76753;BME280;65687;51.308;16.916;2023-02-22T15:13:48;99760.11;;;7.25;61.08
76753;BME280;65687;51.308;16.916;2023-02-22T15:18:52;99756.91;;;7.25;61.25
76753;BME280;65687;51.308;16.916;2023-02-22T15:24:02;99751.11;;;7.24;61.12
76753;BME280;65687;51.308;16.916;2023-02-22T15:29:21;99748.01;;;7.17;61.66
76753;BME280;65687;51.308;16.916;2023-02-22T15:34:32;99748.39;;;7.09;62.49
76753;BME280;65687;51.308;16.916;2023-02-22T15:39:34;99751.27;;;7.00;62.79
76753;BME280;65687;51.308;16.916;2023-02-22T15:44:45;99757.55;;;6.94;62.76
76753;BME280;65687;51.308;16.916;2023-02-22T15:55:21;99756.61;;;6.85;63.97
76753;BME280;65687;51.308;16.916;2023-02-22T16:00:34;99758.64;;;6.89;64.24
76753;BME280;65687;51.308;16.916;2023-02-22T16:05:41;99759.48;;;6.89;64.73
76753;BME280;65687;51.308;16.916;2023-02-22T16:11:09;99760.02;;;6.85;63.83
76753;BME280;65687;51.308;16.916;2023-02-22T16:21:20;99766.84;;;6.78;63.57
76753;BME280;65687;51.308;16.916;2023-02-22T16:31:32;99775.90;;;6.66;63.77
76753;BME280;65687;51.308;16.916;2023-02-22T16:36:45;99779.90;;;6.59;63.88
76753;BME280;65687;51.308;16.916;2023-02-22T16:41:49;99787.05;;;6.51;64.24
76753;BME280;65687;51.308;16.916;2023-02-22T16:46:52;99794.90;;;6.45;65.00
76753;BME280;65687;51.308;16.916;2023-02-22T16:51:58;99800.39;;;6.40;64.93
76753;BME280;65687;51.308;16.916;2023-02-22T16:57:01;99803.93;;;6.34;65.27
76753;BME280;65687;51.308;16.916;2023-02-22T17:02:04;99803.80;;;6.29;65.56
76753;BME280;65687;51.308;16.916;2023-02-22T17:07:09;99804.09;;;6.21;66.49
76753;BME280;65687;51.308;16.916;2023-02-22T17:12:11;99816.64;;;6.19;66.64
76753;BME280;65687;51.308;16.916;2023-02-22T17:17:14;99810.84;;;6.20;67.08
76753;BME280;65687;51.308;16.916;2023-02-22T17:22:18;99817.96;;;6.17;67.25
76753;BME280;65687;51.308;16.916;2023-02-22T17:27:20;99812.12;;;6.11;67.53
76753;BME280;65687;51.308;16.916;2023-02-22T17:32:22;99814.02;;;6.04;67.91
76753;BME280;65687;51.308;16.916;2023-02-22T17:37:24;99809.40;;;5.95;68.28
76753;BME280;65687;51.308;16.916;2023-02-22T17:42:25;99809.30;;;5.87;68.76
76753;BME280;65687;51.308;16.916;2023-02-22T17:47:27;99810.81;;;5.79;68.95
76753;BME280;65687;51.308;16.916;2023-02-22T17:52:28;99813.61;;;5.76;69.25
76753;BME280;65687;51.308;16.916;2023-02-22T17:57:30;99814.88;;;5.79;69.46
76753;BME280;65687;51.308;16.916;2023-02-22T18:02:32;99818.64;;;5.78;69.51
76753;BME280;65687;51.308;16.916;2023-02-22T18:07:35;99816.48;;;5.71;69.69
76753;BME280;65687;51.308;16.916;2023-02-22T18:12:38;99820.52;;;5.61;69.93
76753;BME280;65687;51.308;16.916;2023-02-22T18:17:40;99823.39;;;5.52;70.31
76753;BME280;65687;51.308;16.916;2023-02-22T18:22:42;99828.60;;;5.44;70.61
76753;BME280;65687;51.308;16.916;2023-02-22T18:27:45;99824.66;;;5.37;71.15
76753;BME280;65687;51.308;16.916;2023-02-22T18:32:46;99824.02;;;5.29;71.11
76753;BME280;65687;51.308;16.916;2023-02-22T18:37:48;99827.96;;;5.29;71.18
76753;BME280;65687;51.308;16.916;2023-02-22T18:42:49;99821.45;;;5.27;71.28
76753;BME280;65687;51.308;16.916;2023-02-22T18:47:51;99820.05;;;5.22;71.54
76753;BME280;65687;51.308;16.916;2023-02-22T18:52:53;99813.58;;;5.15;71.71
76753;BME280;65687;51.308;16.916;2023-02-22T18:57:55;99811.65;;;5.02;71.23
76753;BME280;65687;51.308;16.916;2023-02-22T19:02:57;99808.54;;;4.89;71.36
76753;BME280;65687;51.308;16.916;2023-02-22T19:07:59;99808.83;;;4.81;71.41
76753;BME280;65687;51.308;16.916;2023-02-22T19:13:01;99812.83;;;4.79;71.50
76753;BME280;65687;51.308;16.916;2023-02-22T19:18:03;99811.63;;;4.81;71.57
76753;BME280;65687;51.308;16.916;2023-02-22T19:23:05;99813.02;;;4.74;71.39
76753;BME280;65687;51.308;16.916;2023-02-22T19:28:10;99809.34;;;4.64;71.58
76753;BME280;65687;51.308;16.916;2023-02-22T19:33:12;99806.67;;;4.51;71.56
76753;BME280;65687;51.308;16.916;2023-02-22T19:38:15;99807.52;;;4.38;71.79
76753;BME280;65687;51.308;16.916;2023-02-22T19:43:17;99812.20;;;4.25;71.91
76753;BME280;65687;51.308;16.916;2023-02-22T19:48:19;99814.99;;;4.15;71.80
76753;BME280;65687;51.308;16.916;2023-02-22T19:53:21;99811.42;;;4.11;71.83
76753;BME280;65687;51.308;16.916;2023-02-22T19:58:22;99814.77;;;4.05;71.74
76753;BME280;65687;51.308;16.916;2023-02-22T20:03:24;99814.53;;;3.97;71.84
76753;BME280;65687;51.308;16.916;2023-02-22T20:08:26;99818.45;;;3.87;71.79
76753;BME280;65687;51.308;16.916;2023-02-22T20:13:29;99823.80;;;3.79;71.64
76753;BME280;65687;51.308;16.916;2023-02-22T20:18:31;99818.81;;;3.69;71.79
76753;BME280;65687;51.308;16.916;2023-02-22T20:23:32;99817.83;;;3.56;72.09
76753;BME280;65687;51.308;16.916;2023-02-22T20:28:34;99822.97;;;3.45;72.51
76753;BME280;65687;51.308;16.916;2023-02-22T20:33:36;99819.94;;;3.39;72.68
76753;BME280;65687;51.308;16.916;2023-02-22T20:38:39;99822.34;;;3.36;72.37
76753;BME280;65687;51.308;16.916;2023-02-22T20:43:41;99816.77;;;3.32;72.35
76753;BME280;65687;51.308;16.916;2023-02-22T20:48:43;99814.13;;;3.25;72.35
76753;BME280;65687;51.308;16.916;2023-02-22T20:53:44;99813.54;;;3.19;72.33
76753;BME280;65687;51.308;16.916;2023-02-22T20:58:46;99815.30;;;3.11;72.32
76753;BME280;65687;51.308;16.916;2023-02-22T21:03:48;99808.83;;;3.02;72.10
76753;BME280;65687;51.308;16.916;2023-02-22T21:08:52;99804.88;;;3.01;71.94
76753;BME280;65687;51.308;16.916;2023-02-22T21:13:54;99802.77;;;2.96;71.88
76753;BME280;65687;51.308;16.916;2023-02-22T21:18:59;99799.02;;;2.90;72.24
76753;BME280;65687;51.308;16.916;2023-02-22T21:24:01;99795.82;;;2.85;72.26
76753;BME280;65687;51.308;16.916;2023-02-22T21:29:04;99794.75;;;2.79;72.05
76753;BME280;65687;51.308;16.916;2023-02-22T21:34:09;99788.08;;;2.73;72.42
76753;BME280;65687;51.308;16.916;2023-02-22T21:39:13;99784.68;;;2.69;72.65
76753;BME280;65687;51.308;16.916;2023-02-22T21:44:22;99780.86;;;2.71;72.71
76753;BME280;65687;51.308;16.916;2023-02-22T21:49:24;99784.21;;;2.69;72.72
76753;BME280;65687;51.308;16.916;2023-02-22T21:54:25;99773.54;;;2.62;73.21
76753;BME280;65687;51.308;16.916;2023-02-22T21:59:28;99770.66;;;2.58;73.16
76753;BME280;65687;51.308;16.916;2023-02-22T22:04:31;99765.33;;;2.53;73.17
76753;BME280;65687;51.308;16.916;2023-02-22T22:09:33;99767.20;;;2.50;73.46
76753;BME280;65687;51.308;16.916;2023-02-22T22:14:37;99762.67;;;2.52;73.26
76753;BME280;65687;51.308;16.916;2023-02-22T22:19:40;99759.23;;;2.45;73.40
76753;BME280;65687;51.308;16.916;2023-02-22T22:24:44;99755.42;;;2.35;73.81
76753;BME280;65687;51.308;16.916;2023-02-22T22:29:46;99748.88;;;2.31;74.02
76753;BME280;65687;51.308;16.916;2023-02-22T22:34:47;99743.17;;;2.29;74.28
76753;BME280;65687;51.308;16.916;2023-02-22T22:39:49;99734.80;;;2.23;74.51
76753;BME280;65687;51.308;16.916;2023-02-22T22:44:51;99728.63;;;2.16;74.61
76753;BME280;65687;51.308;16.916;2023-02-22T22:49:52;99726.92;;;2.09;74.87
76753;BME280;65687;51.308;16.916;2023-02-22T22:55:01;99725.29;;;2.07;74.87
76753;BME280;65687;51.308;16.916;2023-02-22T23:00:08;99725.02;;;2.03;74.92
76753;BME280;65687;51.308;16.916;2023-02-22T23:05:38;99731.47;;;1.96;75.04
76753;BME280;65687;51.308;16.916;2023-02-22T23:10:41;99732.55;;;1.93;75.24
76753;BME280;65687;51.308;16.916;2023-02-22T23:15:44;99730.69;;;1.89;75.45
76753;BME280;65687;51.308;16.916;2023-02-22T23:20:48;99731.27;;;1.82;75.50
76753;BME280;65687;51.308;16.916;2023-02-22T23:26:07;99734.15;;;1.79;75.72
76753;BME280;65687;51.308;16.916;2023-02-22T23:31:18;99731.21;;;1.74;75.75
76753;BME280;65687;51.308;16.916;2023-02-22T23:36:20;99732.15;;;1.68;75.80
76753;BME280;65687;51.308;16.916;2023-02-22T23:41:22;99731.31;;;1.62;75.97
76753;BME280;65687;51.308;16.916;2023-02-22T23:46:25;99728.79;;;1.60;76.00
76753;BME280;65687;51.308;16.916;2023-02-22T23:51:29;99728.30;;;1.56;76.01
76753;BME280;65687;51.308;16.916;2023-02-22T23:56:40;99727.16;;;1.53;76.18
